sensor_id;sensor_type;location;lat;lon;timestamp;temperature;humidity
68867;SHT30;56451;44.804;20.476;2023-01-31T00:01:15;5.48;60.83
68867;SHT30;56451;44.804;20.476;2023-01-31T00:03:41;5.50;60.83
68867;SHT30;56451;44.804;20.476;2023-01-31T00:06:15;5.46;61.01
68867;SHT30;56451;44.804;20.476;2023-01-31T00:08:42;5.46;61.01
68867;SHT30;56451;44.804;20.476;2023-01-31T00:11:09;5.51;61.14
68867;SHT30;56451;44.804;20.476;2023-01-31T00:13:35;5.52;61.08
68867;SHT30;56451;44.804;20.476;2023-01-31T00:16:01;5.54;61.07
68867;SHT30;56451;44.804;20.476;2023-01-31T00:18:27;5.47;60.98
68867;SHT30;56451;44.804;20.476;2023-01-31T00:20:53;5.50;61.05
68867;SHT30;56451;44.804;20.476;2023-01-31T00:23:19;5.44;61.20
68867;SHT30;56451;44.804;20.476;2023-01-31T00:25:45;5.44;61.09
68867;SHT30;56451;44.804;20.476;2023-01-31T00:28:11;5.47;61.25
68867;SHT30;56451;44.804;20.476;2023-01-31T00:30:36;5.44;61.14
68867;SHT30;56451;44.804;20.476;2023-01-31T00:33:02;5.41;61.41
68867;SHT30;56451;44.804;20.476;2023-01-31T00:35:28;5.46;61.27
68867;SHT30;56451;44.804;20.476;2023-01-31T00:37:54;5.51;61.28
68867;SHT30;56451;44.804;20.476;2023-01-31T00:40:20;5.48;61.52
68867;SHT30;56451;44.804;20.476;2023-01-31T00:42:46;5.48;61.62
68867;SHT30;56451;44.804;20.476;2023-01-31T00:45:12;5.54;61.58
68867;SHT30;56451;44.804;20.476;2023-01-31T00:47:39;5.51;61.65
68867;SHT30;56451;44.804;20.476;2023-01-31T00:50:05;5.52;61.76
68867;SHT30;56451;44.804;20.476;2023-01-31T00:52:31;5.54;61.56
68867;SHT30;56451;44.804;20.476;2023-01-31T00:54:57;5.57;61.57
68867;SHT30;56451;44.804;20.476;2023-01-31T00:57:23;5.64;61.46
68867;SHT30;56451;44.804;20.476;2023-01-31T00:59:49;5.67;61.47
68867;SHT30;56451;44.804;20.476;2023-01-31T01:02:15;5.69;61.33
68867;SHT30;56451;44.804;20.476;2023-01-31T01:04:41;5.72;61.16
68867;SHT30;56451;44.804;20.476;2023-01-31T01:07:07;5.68;61.21
68867;SHT30;56451;44.804;20.476;2023-01-31T01:09:33;5.69;61.31
68867;SHT30;56451;44.804;20.476;2023-01-31T01:12:00;5.67;61.36
68867;SHT30;56451;44.804;20.476;2023-01-31T01:14:25;5.64;61.42
68867;SHT30;56451;44.804;20.476;2023-01-31T01:16:51;5.62;61.41
68867;SHT30;56451;44.804;20.476;2023-01-31T01:19:18;5.65;61.36
68867;SHT30;56451;44.804;20.476;2023-01-31T01:21:46;5.62;61.47
68867;SHT30;56451;44.804;20.476;2023-01-31T01:24:15;5.57;61.62
68867;SHT30;56451;44.804;20.476;2023-01-31T01:26:41;5.62;61.73
68867;SHT30;56451;44.804;20.476;2023-01-31T01:29:08;5.65;61.62
68867;SHT30;56451;44.804;20.476;2023-01-31T01:31:34;5.55;61.81
68867;SHT30;56451;44.804;20.476;2023-01-31T01:34:04;5.55;61.99
68867;SHT30;56451;44.804;20.476;2023-01-31T01:36:32;5.51;62.08
68867;SHT30;56451;44.804;20.476;2023-01-31T01:38:58;5.50;62.16
68867;SHT30;56451;44.804;20.476;2023-01-31T01:41:24;5.44;62.53
68867;SHT30;56451;44.804;20.476;2023-01-31T01:43:56;5.46;62.61
68867;SHT30;56451;44.804;20.476;2023-01-31T01:46:29;5.43;62.76
68867;SHT30;56451;44.804;20.476;2023-01-31T01:49:01;5.47;62.85
68867;SHT30;56451;44.804;20.476;2023-01-31T01:51:28;5.50;62.88
68867;SHT30;56451;44.804;20.476;2023-01-31T01:53:58;5.50;62.96
68867;SHT30;56451;44.804;20.476;2023-01-31T01:56:28;5.57;63.02
68867;SHT30;56451;44.804;20.476;2023-01-31T02:01:44;5.47;63.61
68867;SHT30;56451;44.804;20.476;2023-01-31T02:04:19;5.33;64.22
68867;SHT30;56451;44.804;20.476;2023-01-31T02:06:46;5.33;64.45
68867;SHT30;56451;44.804;20.476;2023-01-31T02:09:21;5.29;64.68
68867;SHT30;56451;44.804;20.476;2023-01-31T02:11:50;5.29;64.97
68867;SHT30;56451;44.804;20.476;2023-01-31T02:14:20;5.24;65.07
68867;SHT30;56451;44.804;20.476;2023-01-31T02:16:46;5.26;65.22
68867;SHT30;56451;44.804;20.476;2023-01-31T02:19:27;5.22;65.32
68867;SHT30;56451;44.804;20.476;2023-01-31T02:22:16;5.24;65.52
68867;SHT30;56451;44.804;20.476;2023-01-31T02:25:21;5.30;65.50
68867;SHT30;56451;44.804;20.476;2023-01-31T02:42:00;5.37;65.39
68867;SHT30;56451;44.804;20.476;2023-01-31T02:45:02;5.46;65.13
68867;SHT30;56451;44.804;20.476;2023-01-31T02:47:56;5.41;65.09
68867;SHT30;56451;44.804;20.476;2023-01-31T02:50:37;5.46;65.09
68867;SHT30;56451;44.804;20.476;2023-01-31T02:53:20;5.47;65.04
68867;SHT30;56451;44.804;20.476;2023-01-31T02:56:09;5.43;65.11
68867;SHT30;56451;44.804;20.476;2023-01-31T02:58:42;5.43;65.06
68867;SHT30;56451;44.804;20.476;2023-01-31T03:01:14;5.52;64.93
68867;SHT30;56451;44.804;20.476;2023-01-31T03:03:45;5.52;64.91
68867;SHT30;56451;44.804;20.476;2023-01-31T03:09:05;5.64;64.67
68867;SHT30;56451;44.804;20.476;2023-01-31T03:12:31;5.65;64.67
68867;SHT30;56451;44.804;20.476;2023-01-31T03:14:52;5.64;64.63
68867;SHT30;56451;44.804;20.476;2023-01-31T03:23:15;5.62;64.77
68867;SHT30;56451;44.804;20.476;2023-01-31T03:25:42;5.57;64.88
68867;SHT30;56451;44.804;20.476;2023-01-31T03:28:12;5.57;65.13
68867;SHT30;56451;44.804;20.476;2023-01-31T03:30:44;5.59;64.98
68867;SHT30;56451;44.804;20.476;2023-01-31T03:33:23;5.59;65.10
68867;SHT30;56451;44.804;20.476;2023-01-31T03:35:56;5.61;64.88
68867;SHT30;56451;44.804;20.476;2023-01-31T03:38:31;5.54;65.16
68867;SHT30;56451;44.804;20.476;2023-01-31T03:41:29;5.57;65.16
68867;SHT30;56451;44.804;20.476;2023-01-31T03:44:02;5.57;65.23
68867;SHT30;56451;44.804;20.476;2023-01-31T03:46:39;5.55;65.13
68867;SHT30;56451;44.804;20.476;2023-01-31T03:49:10;5.41;65.44
68867;SHT30;56451;44.804;20.476;2023-01-31T03:51:42;5.31;65.81
68867;SHT30;56451;44.804;20.476;2023-01-31T03:54:15;5.23;66.30
68867;SHT30;56451;44.804;20.476;2023-01-31T03:57:00;5.22;66.77
68867;SHT30;56451;44.804;20.476;2023-01-31T03:59:31;5.22;66.74
68867;SHT30;56451;44.804;20.476;2023-01-31T04:02:00;5.13;66.95
68867;SHT30;56451;44.804;20.476;2023-01-31T04:04:33;5.15;67.19
68867;SHT30;56451;44.804;20.476;2023-01-31T04:07:01;5.19;67.24
68867;SHT30;56451;44.804;20.476;2023-01-31T04:09:29;5.19;67.19
68867;SHT30;56451;44.804;20.476;2023-01-31T04:11:58;5.24;67.29
68867;SHT30;56451;44.804;20.476;2023-01-31T04:14:25;5.27;66.74
68867;SHT30;56451;44.804;20.476;2023-01-31T04:16:51;5.31;66.51
68867;SHT30;56451;44.804;20.476;2023-01-31T04:19:17;5.33;66.29
68867;SHT30;56451;44.804;20.476;2023-01-31T04:21:43;5.34;65.75
68867;SHT30;56451;44.804;20.476;2023-01-31T04:24:08;5.36;65.48
68867;SHT30;56451;44.804;20.476;2023-01-31T04:26:35;5.31;65.39
68867;SHT30;56451;44.804;20.476;2023-01-31T04:29:01;5.33;65.37
68867;SHT30;56451;44.804;20.476;2023-01-31T04:31:27;5.37;65.05
68867;SHT30;56451;44.804;20.476;2023-01-31T04:33:53;5.41;64.81
68867;SHT30;56451;44.804;20.476;2023-01-31T04:36:19;5.31;64.99
68867;SHT30;56451;44.804;20.476;2023-01-31T04:38:45;5.29;65.20
68867;SHT30;56451;44.804;20.476;2023-01-31T04:41:10;5.27;65.34
68867;SHT30;56451;44.804;20.476;2023-01-31T04:43:36;5.24;65.53
68867;SHT30;56451;44.804;20.476;2023-01-31T04:46:02;5.20;65.48
68867;SHT30;56451;44.804;20.476;2023-01-31T04:48:28;5.16;65.55
68867;SHT30;56451;44.804;20.476;2023-01-31T04:50:54;5.15;65.53
68867;SHT30;56451;44.804;20.476;2023-01-31T04:53:20;5.12;65.75
68867;SHT30;56451;44.804;20.476;2023-01-31T04:55:47;5.13;65.79
68867;SHT30;56451;44.804;20.476;2023-01-31T04:58:12;5.06;65.96
68867;SHT30;56451;44.804;20.476;2023-01-31T05:00:39;5.12;65.83
68867;SHT30;56451;44.804;20.476;2023-01-31T05:03:04;5.09;65.99
68867;SHT30;56451;44.804;20.476;2023-01-31T05:05:31;5.13;65.55
68867;SHT30;56451;44.804;20.476;2023-01-31T05:07:57;5.15;65.36
68867;SHT30;56451;44.804;20.476;2023-01-31T05:10:24;5.13;65.67
68867;SHT30;56451;44.804;20.476;2023-01-31T05:12:50;5.15;65.73
68867;SHT30;56451;44.804;20.476;2023-01-31T05:15:16;5.19;65.41
68867;SHT30;56451;44.804;20.476;2023-01-31T05:17:42;5.22;65.14
68867;SHT30;56451;44.804;20.476;2023-01-31T05:20:08;5.27;64.88
68867;SHT30;56451;44.804;20.476;2023-01-31T05:22:34;5.31;64.85
68867;SHT30;56451;44.804;20.476;2023-01-31T05:25:00;5.29;65.15
68867;SHT30;56451;44.804;20.476;2023-01-31T05:27:26;5.37;64.50
68867;SHT30;56451;44.804;20.476;2023-01-31T05:29:52;5.27;64.77
68867;SHT30;56451;44.804;20.476;2023-01-31T05:32:18;5.26;64.92
68867;SHT30;56451;44.804;20.476;2023-01-31T05:34:44;5.27;64.98
68867;SHT30;56451;44.804;20.476;2023-01-31T05:37:10;5.29;65.03
68867;SHT30;56451;44.804;20.476;2023-01-31T05:39:37;5.31;64.95
68867;SHT30;56451;44.804;20.476;2023-01-31T05:42:03;5.33;64.95
68867;SHT30;56451;44.804;20.476;2023-01-31T05:44:29;5.38;64.47
68867;SHT30;56451;44.804;20.476;2023-01-31T05:46:56;5.44;64.61
68867;SHT30;56451;44.804;20.476;2023-01-31T05:49:22;5.48;64.31
68867;SHT30;56451;44.804;20.476;2023-01-31T05:51:48;5.48;64.10
68867;SHT30;56451;44.804;20.476;2023-01-31T05:54:14;5.51;63.86
68867;SHT30;56451;44.804;20.476;2023-01-31T05:56:40;5.54;63.85
68867;SHT30;56451;44.804;20.476;2023-01-31T05:59:06;5.57;63.74
68867;SHT30;56451;44.804;20.476;2023-01-31T06:01:32;5.59;63.38
68867;SHT30;56451;44.804;20.476;2023-01-31T06:03:58;5.58;63.20
68867;SHT30;56451;44.804;20.476;2023-01-31T06:06:23;5.61;63.05
68867;SHT30;56451;44.804;20.476;2023-01-31T06:08:50;5.65;63.20
68867;SHT30;56451;44.804;20.476;2023-01-31T06:11:15;5.74;62.24
68867;SHT30;56451;44.804;20.476;2023-01-31T06:13:43;5.77;62.19
68867;SHT30;56451;44.804;20.476;2023-01-31T06:16:09;5.78;62.35
68867;SHT30;56451;44.804;20.476;2023-01-31T06:18:35;5.79;61.96
68867;SHT30;56451;44.804;20.476;2023-01-31T06:21:01;5.82;61.66
68867;SHT30;56451;44.804;20.476;2023-01-31T06:23:27;5.84;61.90
68867;SHT30;56451;44.804;20.476;2023-01-31T06:25:53;5.89;61.45
68867;SHT30;56451;44.804;20.476;2023-01-31T06:28:21;5.89;61.46
68867;SHT30;56451;44.804;20.476;2023-01-31T06:30:47;5.91;61.40
68867;SHT30;56451;44.804;20.476;2023-01-31T06:33:12;5.91;61.65
68867;SHT30;56451;44.804;20.476;2023-01-31T06:35:39;5.92;61.50
68867;SHT30;56451;44.804;20.476;2023-01-31T06:38:05;5.96;61.53
68867;SHT30;56451;44.804;20.476;2023-01-31T06:40:31;5.95;61.72
68867;SHT30;56451;44.804;20.476;2023-01-31T06:42:58;5.95;61.74
68867;SHT30;56451;44.804;20.476;2023-01-31T06:45:24;5.99;61.41
68867;SHT30;56451;44.804;20.476;2023-01-31T06:47:50;5.96;61.50
68867;SHT30;56451;44.804;20.476;2023-01-31T06:50:16;5.89;61.88
68867;SHT30;56451;44.804;20.476;2023-01-31T06:52:42;5.95;61.59
68867;SHT30;56451;44.804;20.476;2023-01-31T06:55:08;5.99;61.89
68867;SHT30;56451;44.804;20.476;2023-01-31T06:57:34;6.02;61.55
68867;SHT30;56451;44.804;20.476;2023-01-31T07:00:00;5.96;61.38
68867;SHT30;56451;44.804;20.476;2023-01-31T07:02:26;5.96;61.87
68867;SHT30;56451;44.804;20.476;2023-01-31T07:04:51;5.98;61.86
68867;SHT30;56451;44.804;20.476;2023-01-31T07:07:18;5.95;61.49
68867;SHT30;56451;44.804;20.476;2023-01-31T07:09:43;5.95;61.59
68867;SHT30;56451;44.804;20.476;2023-01-31T07:12:09;5.89;61.55
68867;SHT30;56451;44.804;20.476;2023-01-31T07:14:35;5.85;61.70
68867;SHT30;56451;44.804;20.476;2023-01-31T07:17:02;5.88;61.84
68867;SHT30;56451;44.804;20.476;2023-01-31T07:19:28;5.88;61.23
68867;SHT30;56451;44.804;20.476;2023-01-31T07:21:54;5.81;61.65
68867;SHT30;56451;44.804;20.476;2023-01-31T07:24:20;5.77;61.60
68867;SHT30;56451;44.804;20.476;2023-01-31T07:26:46;5.69;61.55
68867;SHT30;56451;44.804;20.476;2023-01-31T07:29:12;5.77;61.76
68867;SHT30;56451;44.804;20.476;2023-01-31T07:31:38;5.84;61.89
68867;SHT30;56451;44.804;20.476;2023-01-31T07:34:04;5.86;61.17
68867;SHT30;56451;44.804;20.476;2023-01-31T07:36:30;5.88;61.36
68867;SHT30;56451;44.804;20.476;2023-01-31T07:38:56;5.85;61.33
68867;SHT30;56451;44.804;20.476;2023-01-31T07:41:24;5.84;61.30
68867;SHT30;56451;44.804;20.476;2023-01-31T07:43:50;5.84;61.24
68867;SHT30;56451;44.804;20.476;2023-01-31T07:46:17;5.82;61.39
68867;SHT30;56451;44.804;20.476;2023-01-31T07:48:43;5.85;61.43
68867;SHT30;56451;44.804;20.476;2023-01-31T07:51:10;5.81;61.50
68867;SHT30;56451;44.804;20.476;2023-01-31T07:53:37;5.74;61.80
68867;SHT30;56451;44.804;20.476;2023-01-31T07:56:14;5.65;61.80
68867;SHT30;56451;44.804;20.476;2023-01-31T07:58:41;5.62;61.92
68867;SHT30;56451;44.804;20.476;2023-01-31T08:01:15;5.65;62.08
68867;SHT30;56451;44.804;20.476;2023-01-31T08:04:00;5.72;61.70
68867;SHT30;56451;44.804;20.476;2023-01-31T08:06:30;5.75;61.69
68867;SHT30;56451;44.804;20.476;2023-01-31T08:08:56;5.72;61.67
68867;SHT30;56451;44.804;20.476;2023-01-31T08:11:23;5.77;61.49
68867;SHT30;56451;44.804;20.476;2023-01-31T08:13:49;5.78;61.78
68867;SHT30;56451;44.804;20.476;2023-01-31T08:16:15;5.86;61.46
68867;SHT30;56451;44.804;20.476;2023-01-31T08:18:41;5.91;61.13
68867;SHT30;56451;44.804;20.476;2023-01-31T08:21:07;5.85;61.44
68867;SHT30;56451;44.804;20.476;2023-01-31T08:23:33;5.84;61.61
68867;SHT30;56451;44.804;20.476;2023-01-31T08:28:26;5.68;62.36
68867;SHT30;56451;44.804;20.476;2023-01-31T08:30:52;5.67;62.64
68867;SHT30;56451;44.804;20.476;2023-01-31T08:33:18;5.69;62.89
68867;SHT30;56451;44.804;20.476;2023-01-31T08:35:44;5.74;62.65
68867;SHT30;56451;44.804;20.476;2023-01-31T08:38:10;5.81;62.96
68867;SHT30;56451;44.804;20.476;2023-01-31T08:40:36;5.92;62.53
68867;SHT30;56451;44.804;20.476;2023-01-31T08:43:02;5.92;62.52
68867;SHT30;56451;44.804;20.476;2023-01-31T08:45:28;5.99;62.38
68867;SHT30;56451;44.804;20.476;2023-01-31T08:47:59;5.96;62.51
68867;SHT30;56451;44.804;20.476;2023-01-31T08:50:27;5.99;61.98
68867;SHT30;56451;44.804;20.476;2023-01-31T08:52:55;6.05;61.43
68867;SHT30;56451;44.804;20.476;2023-01-31T08:55:22;6.09;61.46
68867;SHT30;56451;44.804;20.476;2023-01-31T08:57:48;6.16;61.19
68867;SHT30;56451;44.804;20.476;2023-01-31T09:00:15;6.19;60.97
68867;SHT30;56451;44.804;20.476;2023-01-31T09:02:41;6.20;60.55
68867;SHT30;56451;44.804;20.476;2023-01-31T09:05:08;6.12;61.04
68867;SHT30;56451;44.804;20.476;2023-01-31T09:07:34;6.17;61.26
68867;SHT30;56451;44.804;20.476;2023-01-31T09:10:00;6.22;61.16
68867;SHT30;56451;44.804;20.476;2023-01-31T09:12:26;6.30;61.14
68867;SHT30;56451;44.804;20.476;2023-01-31T09:14:52;6.37;60.75
68867;SHT30;56451;44.804;20.476;2023-01-31T09:17:18;6.40;60.48
68867;SHT30;56451;44.804;20.476;2023-01-31T09:19:45;6.38;60.14
68867;SHT30;56451;44.804;20.476;2023-01-31T09:22:13;6.41;60.30
68867;SHT30;56451;44.804;20.476;2023-01-31T09:24:39;6.46;60.09
68867;SHT30;56451;44.804;20.476;2023-01-31T09:27:05;6.46;59.86
68867;SHT30;56451;44.804;20.476;2023-01-31T09:29:31;6.48;59.89
68867;SHT30;56451;44.804;20.476;2023-01-31T09:31:57;6.50;59.95
68867;SHT30;56451;44.804;20.476;2023-01-31T09:34:23;6.57;58.91
68867;SHT30;56451;44.804;20.476;2023-01-31T09:36:49;6.54;59.09
68867;SHT30;56451;44.804;20.476;2023-01-31T09:39:16;6.58;58.95
68867;SHT30;56451;44.804;20.476;2023-01-31T09:41:43;6.60;58.94
68867;SHT30;56451;44.804;20.476;2023-01-31T09:44:15;6.65;58.79
68867;SHT30;56451;44.804;20.476;2023-01-31T09:47:03;6.65;58.10
68867;SHT30;56451;44.804;20.476;2023-01-31T09:49:50;6.67;58.44
68867;SHT30;56451;44.804;20.476;2023-01-31T09:52:17;6.65;58.48
68867;SHT30;56451;44.804;20.476;2023-01-31T09:54:43;6.63;57.97
68867;SHT30;56451;44.804;20.476;2023-01-31T10:05:42;6.61;57.90
68867;SHT30;56451;44.804;20.476;2023-01-31T10:11:13;6.74;57.57
68867;SHT30;56451;44.804;20.476;2023-01-31T10:13:48;6.73;57.37
68867;SHT30;56451;44.804;20.476;2023-01-31T10:16:41;6.80;57.49
68867;SHT30;56451;44.804;20.476;2023-01-31T10:19:17;6.83;57.69
68867;SHT30;56451;44.804;20.476;2023-01-31T10:21:53;6.87;57.55
68867;SHT30;56451;44.804;20.476;2023-01-31T10:24:26;6.77;57.83
68867;SHT30;56451;44.804;20.476;2023-01-31T10:27:03;6.73;58.39
68867;SHT30;56451;44.804;20.476;2023-01-31T10:29:42;6.78;58.83
68867;SHT30;56451;44.804;20.476;2023-01-31T10:32:17;6.83;58.81
68867;SHT30;56451;44.804;20.476;2023-01-31T10:34:48;6.88;58.43
68867;SHT30;56451;44.804;20.476;2023-01-31T10:43:56;6.88;58.29
68867;SHT30;56451;44.804;20.476;2023-01-31T10:46:25;6.89;57.78
68867;SHT30;56451;44.804;20.476;2023-01-31T10:48:51;6.94;57.11
68867;SHT30;56451;44.804;20.476;2023-01-31T10:51:28;6.94;57.56
68867;SHT30;56451;44.804;20.476;2023-01-31T10:54:18;6.91;57.80
68867;SHT30;56451;44.804;20.476;2023-01-31T10:56:48;6.91;58.23
68867;SHT30;56451;44.804;20.476;2023-01-31T11:01:49;6.91;58.26
68867;SHT30;56451;44.804;20.476;2023-01-31T11:04:33;6.88;58.52
68867;SHT30;56451;44.804;20.476;2023-01-31T11:07:01;6.81;57.99
68867;SHT30;56451;44.804;20.476;2023-01-31T11:09:31;6.84;58.24
68867;SHT30;56451;44.804;20.476;2023-01-31T11:12:00;6.81;57.98
68867;SHT30;56451;44.804;20.476;2023-01-31T11:14:27;6.81;58.14
68867;SHT30;56451;44.804;20.476;2023-01-31T11:17:11;6.77;58.11
68867;SHT30;56451;44.804;20.476;2023-01-31T11:19:46;6.80;57.96
68867;SHT30;56451;44.804;20.476;2023-01-31T11:24:52;6.74;58.05
68867;SHT30;56451;44.804;20.476;2023-01-31T11:27:41;6.77;58.08
68867;SHT30;56451;44.804;20.476;2023-01-31T11:32:45;6.75;57.64
68867;SHT30;56451;44.804;20.476;2023-01-31T11:40:51;6.71;57.89
68867;SHT30;56451;44.804;20.476;2023-01-31T11:45:53;6.78;57.96
68867;SHT30;56451;44.804;20.476;2023-01-31T11:48:28;6.84;57.77
68867;SHT30;56451;44.804;20.476;2023-01-31T11:51:00;6.95;57.97
68867;SHT30;56451;44.804;20.476;2023-01-31T11:53:42;6.96;57.41
68867;SHT30;56451;44.804;20.476;2023-01-31T11:56:19;7.01;57.08
68867;SHT30;56451;44.804;20.476;2023-01-31T11:58:49;7.04;57.01
68867;SHT30;56451;44.804;20.476;2023-01-31T12:01:20;7.08;56.82
68867;SHT30;56451;44.804;20.476;2023-01-31T12:03:55;7.09;56.49
68867;SHT30;56451;44.804;20.476;2023-01-31T12:06:31;7.12;56.50
68867;SHT30;56451;44.804;20.476;2023-01-31T12:08:59;7.13;56.20
68867;SHT30;56451;44.804;20.476;2023-01-31T12:11:34;7.18;56.14
68867;SHT30;56451;44.804;20.476;2023-01-31T12:14:10;7.11;56.12
68867;SHT30;56451;44.804;20.476;2023-01-31T12:16:37;7.11;55.87
68867;SHT30;56451;44.804;20.476;2023-01-31T12:24:41;7.20;55.84
68867;SHT30;56451;44.804;20.476;2023-01-31T12:46:42;7.49;55.50
68867;SHT30;56451;44.804;20.476;2023-01-31T12:52:03;7.39;57.21
68867;SHT30;56451;44.804;20.476;2023-01-31T12:57:50;7.23;60.49
68867;SHT30;56451;44.804;20.476;2023-01-31T13:03:21;6.98;62.01
68867;SHT30;56451;44.804;20.476;2023-01-31T13:05:55;6.85;62.89
68867;SHT30;56451;44.804;20.476;2023-01-31T13:08:25;6.73;63.27
68867;SHT30;56451;44.804;20.476;2023-01-31T13:11:05;6.67;63.96
68867;SHT30;56451;44.804;20.476;2023-01-31T13:13:59;6.53;63.46
68867;SHT30;56451;44.804;20.476;2023-01-31T13:16:35;6.41;64.22
68867;SHT30;56451;44.804;20.476;2023-01-31T13:19:06;6.43;65.04
68867;SHT30;56451;44.804;20.476;2023-01-31T13:21:43;6.48;63.34
68867;SHT30;56451;44.804;20.476;2023-01-31T13:24:13;6.50;64.07
68867;SHT30;56451;44.804;20.476;2023-01-31T13:26:47;6.57;63.49
68867;SHT30;56451;44.804;20.476;2023-01-31T13:32:02;6.71;62.03
68867;SHT30;56451;44.804;20.476;2023-01-31T13:34:36;6.73;61.75
68867;SHT30;56451;44.804;20.476;2023-01-31T13:37:08;6.75;61.85
68867;SHT30;56451;44.804;20.476;2023-01-31T13:39:38;6.78;61.57
68867;SHT30;56451;44.804;20.476;2023-01-31T13:42:05;6.83;61.24
68867;SHT30;56451;44.804;20.476;2023-01-31T13:44:31;6.89;60.41
68867;SHT30;56451;44.804;20.476;2023-01-31T13:49:43;6.98;60.49
68867;SHT30;56451;44.804;20.476;2023-01-31T13:52:20;7.01;60.21
68867;SHT30;56451;44.804;20.476;2023-01-31T13:54:55;6.98;60.92
68867;SHT30;56451;44.804;20.476;2023-01-31T13:57:28;6.94;61.29
68867;SHT30;56451;44.804;20.476;2023-01-31T14:02:59;6.83;61.13
68867;SHT30;56451;44.804;20.476;2023-01-31T14:10:54;6.73;62.38
68867;SHT30;56451;44.804;20.476;2023-01-31T14:15:59;6.64;62.48
68867;SHT30;56451;44.804;20.476;2023-01-31T14:18:36;6.54;62.11
68867;SHT30;56451;44.804;20.476;2023-01-31T14:23:57;6.38;63.29
68867;SHT30;56451;44.804;20.476;2023-01-31T14:29:07;6.29;64.32
68867;SHT30;56451;44.804;20.476;2023-01-31T14:31:34;6.34;64.66
68867;SHT30;56451;44.804;20.476;2023-01-31T14:34:01;6.34;64.57
68867;SHT30;56451;44.804;20.476;2023-01-31T14:44:38;6.33;63.65
68867;SHT30;56451;44.804;20.476;2023-01-31T14:56:00;6.36;64.02
68867;SHT30;56451;44.804;20.476;2023-01-31T14:58:30;6.38;63.78
68867;SHT30;56451;44.804;20.476;2023-01-31T15:00:59;6.41;63.50
68867;SHT30;56451;44.804;20.476;2023-01-31T15:03:53;6.54;63.70
68867;SHT30;56451;44.804;20.476;2023-01-31T15:06:23;6.65;62.89
68867;SHT30;56451;44.804;20.476;2023-01-31T15:11:44;6.77;62.86
68867;SHT30;56451;44.804;20.476;2023-01-31T15:14:22;6.85;62.79
68867;SHT30;56451;44.804;20.476;2023-01-31T15:16:59;6.92;62.43
68867;SHT30;56451;44.804;20.476;2023-01-31T15:19:26;7.02;61.75
68867;SHT30;56451;44.804;20.476;2023-01-31T15:21:58;7.09;61.59
68867;SHT30;56451;44.804;20.476;2023-01-31T15:25:00;7.23;61.23
68867;SHT30;56451;44.804;20.476;2023-01-31T15:27:30;7.23;60.36
68867;SHT30;56451;44.804;20.476;2023-01-31T15:32:35;7.09;60.59
68867;SHT30;56451;44.804;20.476;2023-01-31T15:37:41;6.99;61.34
68867;SHT30;56451;44.804;20.476;2023-01-31T15:40:21;6.92;61.32
68867;SHT30;56451;44.804;20.476;2023-01-31T15:42:49;6.88;61.55
68867;SHT30;56451;44.804;20.476;2023-01-31T15:45:23;6.85;61.99
68867;SHT30;56451;44.804;20.476;2023-01-31T15:48:10;6.87;61.83
68867;SHT30;56451;44.804;20.476;2023-01-31T15:50:36;6.83;61.84
68867;SHT30;56451;44.804;20.476;2023-01-31T15:53:11;6.74;62.14
68867;SHT30;56451;44.804;20.476;2023-01-31T15:55:39;6.67;62.34
68867;SHT30;56451;44.804;20.476;2023-01-31T15:58:05;6.64;62.04
68867;SHT30;56451;44.804;20.476;2023-01-31T16:00:36;6.61;62.45
68867;SHT30;56451;44.804;20.476;2023-01-31T16:03:04;6.50;62.74
68867;SHT30;56451;44.804;20.476;2023-01-31T16:05:33;6.47;62.77
68867;SHT30;56451;44.804;20.476;2023-01-31T16:08:02;6.41;62.95
68867;SHT30;56451;44.804;20.476;2023-01-31T16:10:29;6.32;62.86
68867;SHT30;56451;44.804;20.476;2023-01-31T16:12:57;6.22;63.01
68867;SHT30;56451;44.804;20.476;2023-01-31T16:15:27;6.17;63.15
68867;SHT30;56451;44.804;20.476;2023-01-31T16:17:56;6.15;62.80
68867;SHT30;56451;44.804;20.476;2023-01-31T16:20:42;6.13;63.07
68867;SHT30;56451;44.804;20.476;2023-01-31T16:26:15;6.10;62.77
68867;SHT30;56451;44.804;20.476;2023-01-31T16:28:44;6.05;62.57
68867;SHT30;56451;44.804;20.476;2023-01-31T16:31:14;6.03;62.92
68867;SHT30;56451;44.804;20.476;2023-01-31T16:33:50;6.03;62.61
68867;SHT30;56451;44.804;20.476;2023-01-31T16:36:26;6.03;62.73
68867;SHT30;56451;44.804;20.476;2023-01-31T16:38:59;6.03;62.55
68867;SHT30;56451;44.804;20.476;2023-01-31T16:41:47;6.02;62.62
68867;SHT30;56451;44.804;20.476;2023-01-31T16:44:20;6.02;62.70
68867;SHT30;56451;44.804;20.476;2023-01-31T16:46:49;6.07;62.29
68867;SHT30;56451;44.804;20.476;2023-01-31T16:49:29;6.03;62.30
68867;SHT30;56451;44.804;20.476;2023-01-31T16:52:08;6.02;62.23
68867;SHT30;56451;44.804;20.476;2023-01-31T16:54:49;5.96;62.29
68867;SHT30;56451;44.804;20.476;2023-01-31T16:59:59;5.89;62.49
68867;SHT30;56451;44.804;20.476;2023-01-31T17:02:28;5.86;62.74
68867;SHT30;56451;44.804;20.476;2023-01-31T17:04:57;5.88;62.08
68867;SHT30;56451;44.804;20.476;2023-01-31T17:07:31;5.85;61.97
68867;SHT30;56451;44.804;20.476;2023-01-31T17:10:00;5.84;62.19
68867;SHT30;56451;44.804;20.476;2023-01-31T17:12:29;5.89;62.11
68867;SHT30;56451;44.804;20.476;2023-01-31T17:14:55;5.95;61.82
68867;SHT30;56451;44.804;20.476;2023-01-31T17:17:25;5.98;61.89
68867;SHT30;56451;44.804;20.476;2023-01-31T17:19:51;6.05;61.60
68867;SHT30;56451;44.804;20.476;2023-01-31T17:22:17;6.09;61.49
68867;SHT30;56451;44.804;20.476;2023-01-31T17:24:43;6.07;61.26
68867;SHT30;56451;44.804;20.476;2023-01-31T17:27:13;6.06;61.66
68867;SHT30;56451;44.804;20.476;2023-01-31T17:29:41;6.07;61.48
68867;SHT30;56451;44.804;20.476;2023-01-31T17:32:10;6.13;61.43
68867;SHT30;56451;44.804;20.476;2023-01-31T17:34:41;6.13;61.49
68867;SHT30;56451;44.804;20.476;2023-01-31T17:37:09;6.15;61.42
68867;SHT30;56451;44.804;20.476;2023-01-31T17:39:35;6.12;61.56
68867;SHT30;56451;44.804;20.476;2023-01-31T17:42:02;6.09;61.57
68867;SHT30;56451;44.804;20.476;2023-01-31T17:44:28;6.10;61.73
68867;SHT30;56451;44.804;20.476;2023-01-31T17:46:54;6.09;61.51
68867;SHT30;56451;44.804;20.476;2023-01-31T17:49:20;6.10;61.63
68867;SHT30;56451;44.804;20.476;2023-01-31T17:51:46;6.03;61.80
68867;SHT30;56451;44.804;20.476;2023-01-31T17:54:12;5.98;61.95
68867;SHT30;56451;44.804;20.476;2023-01-31T17:56:39;6.02;61.89
68867;SHT30;56451;44.804;20.476;2023-01-31T17:59:05;6.05;62.06
68867;SHT30;56451;44.804;20.476;2023-01-31T18:01:31;6.03;62.02
68867;SHT30;56451;44.804;20.476;2023-01-31T18:03:57;6.01;62.07
68867;SHT30;56451;44.804;20.476;2023-01-31T18:06:25;5.98;62.36
68867;SHT30;56451;44.804;20.476;2023-01-31T18:08:52;5.92;62.64
68867;SHT30;56451;44.804;20.476;2023-01-31T18:11:18;5.98;62.62
68867;SHT30;56451;44.804;20.476;2023-01-31T18:13:44;5.98;62.63
68867;SHT30;56451;44.804;20.476;2023-01-31T18:16:12;5.89;62.91